| time (UTC) | temp C | wind direction | speed KPH | gust KPH | rain 1hr cm | rain 24hr cm | rain mn cm | humidity % | barometer mb |
| 20260510044621 | 13 | 275 | 0.0 | 3.2 | 0.00 | 0.89 | 0.10 | 87 | 1007.3 |
| 20260510043656 | 13 | 190 | 0.0 | 14.5 | 0.15 | 0.89 | 0.10 | 87 | 1007.6 |
| 20260510041650 | 13 | 195 | 0.0 | 3.2 | 0.00 | 0.79 | 0.00 | 90 | 1007.3 |
| 20260510040154 | 13 | 182 | 0.0 | 3.2 | 0.00 | 0.81 | 0.00 | 90 | 1006.3 |
| 20260510035742 | 12 | 130 | 0.0 | 3.2 | 0.00 | 0.81 | 0.84 | 90 | 1006.3 |
| 20260510034831 | 12 | 144 | 0.0 | 0.0 | 0.00 | 0.81 | 0.84 | 90 | 1006.4 |
| 20260510034415 | 12 | 146 | 0.0 | 0.0 | 0.00 | 0.81 | 0.84 | 90 | 1006.2 |
| 20260510034016 | 12 | 155 | 0.0 | 1.6 | 0.00 | 0.81 | 0.84 | 90 | 1006.1 |
| 20260510033611 | 12 | 148 | 0.0 | 0.0 | 0.00 | 0.81 | 0.84 | 90 | 1005.9 |
| 20260510033208 | 12 | 144 | 0.0 | 0.0 | 0.00 | 0.81 | 0.84 | 90 | 1005.8 |
| 20260510032813 | 12 | 111 | 0.0 | 0.0 | 0.00 | 0.81 | 0.84 | 90 | 1005.8 |
| 20260510032408 | 12 | 111 | 0.0 | 0.0 | 0.00 | 0.81 | 0.84 | 90 | 1005.7 |
| 20260510031431 | 12 | 111 | 0.0 | 0.0 | 0.00 | 0.81 | 0.84 | 90 | 1005.8 |
| 20260510031020 | 12 | 110 | 0.0 | 0.0 | 0.00 | 0.81 | 0.84 | 90 | 1005.7 |
| 20260510025557 | 12 | 141 | 0.0 | 0.0 | 0.00 | 0.81 | 0.84 | 90 | 1005.8 |
| 20260510025204 | 12 | 138 | 0.0 | 0.0 | 0.00 | 0.81 | 0.84 | 89 | 1005.8 |
| 20260510024757 | 12 | 140 | 0.0 | 0.0 | 0.00 | 0.81 | 0.84 | 89 | 1005.9 |
| 20260510024353 | 12 | 140 | 0.0 | 1.6 | 0.00 | 0.81 | 0.84 | 90 | 1005.9 |
| 20260510023953 | 12 | 140 | 0.0 | 0.0 | 0.00 | 0.81 | 0.81 | 89 | 1005.9 |
| 20260510023545 | 12 | 141 | 0.0 | 3.2 | 0.00 | 0.81 | 0.81 | 89 | 1005.9 |
| 20260510023131 | 12 | 140 | 0.0 | 1.6 | 0.00 | 0.81 | 0.81 | 89 | 1005.8 |
| 20260510022208 | 13 | 146 | 0.0 | 0.0 | 0.00 | 0.81 | 0.81 | 89 | 1005.9 |
| 20260510021814 | 13 | 152 | 0.0 | 1.6 | 0.00 | 0.81 | 0.81 | 89 | 1005.9 |
| 20260510021402 | 12 | 122 | 0.0 | 1.6 | 0.00 | 0.81 | 0.81 | 89 | 1005.9 |
| 20260510021009 | 12 | 112 | 0.0 | 3.2 | 0.00 | 0.81 | 0.81 | 89 | 1006.0 |
| 20260510020602 | 13 | 132 | 0.0 | 3.2 | 0.00 | 0.81 | 0.81 | 89 | 1005.9 |
| 20260510020208 | 12 | 134 | 0.0 | 3.2 | 0.00 | 0.81 | 0.81 | 89 | 1005.8 |
| 20260510015756 | 12 | 140 | 0.0 | 3.2 | 0.00 | 0.81 | 0.81 | 89 | 1005.9 |
| 20260510015349 | 12 | 152 | 0.0 | 0.0 | 0.00 | 0.81 | 0.81 | 89 | 1005.8 |
| 20260510014933 | 12 | 153 | 0.0 | 0.0 | 0.00 | 0.81 | 0.81 | 89 | 1005.9 |
| 20260510014532 | 12 | 155 | 0.0 | 0.0 | 0.00 | 0.81 | 0.81 | 89 | 1005.7 |
| 20260510013615 | 12 | 155 | 0.0 | 0.0 | 0.00 | 0.81 | 0.81 | 88 | 1005.6 |
| 20260510013220 | 12 | 156 | 0.0 | 0.0 | 0.00 | 0.84 | 0.81 | 88 | 1005.5 |
| 20260510012824 | 12 | 155 | 0.0 | 0.0 | 0.00 | 0.84 | 0.81 | 88 | 1005.5 |
| 20260510011905 | 13 | 156 | 0.0 | 0.0 | 0.00 | 0.84 | 0.81 | 88 | 1005.4 |
| 20260510011505 | 13 | 156 | 0.0 | 0.0 | 0.00 | 0.84 | 0.81 | 88 | 1005.4 |
| 20260510010541 | 13 | 156 | 0.0 | 0.0 | 0.00 | 0.84 | 0.81 | 88 | 1005.4 |
| 20260510010125 | 13 | 156 | 0.0 | 1.6 | 0.00 | 0.84 | 0.81 | 89 | 1005.3 |
| 20260510005730 | 13 | 157 | 0.0 | 1.6 | 0.00 | 0.84 | 0.81 | 88 | 1005.4 |
| 20260510005326 | 13 | 157 | 0.0 | 1.6 | 0.00 | 0.84 | 0.81 | 88 | 1005.3 |
| 20260510004917 | 13 | 157 | 0.0 | 1.6 | 0.00 | 0.84 | 0.81 | 88 | 1005.2 |
| 20260510004514 | 13 | 158 | 0.0 | 0.0 | 0.00 | 0.84 | 0.81 | 88 | 1005.2 |
| 20260510004115 | 13 | 151 | 0.0 | 1.6 | 0.00 | 0.84 | 0.81 | 88 | 1005.2 |
| 20260510002635 | 13 | 132 | 0.0 | 0.0 | 0.00 | 0.84 | 0.81 | 88 | 1005.0 |
| 20260510002232 | 13 | 134 | 0.0 | 1.6 | 0.00 | 0.84 | 0.81 | 88 | 1004.9 |
| 20260510001834 | 13 | 138 | 0.0 | 1.6 | 0.00 | 0.84 | 0.81 | 88 | 1005.0 |
| 20260510001422 | 13 | 129 | 0.0 | 1.6 | 0.00 | 0.84 | 0.81 | 88 | 1005.0 |
| 20260510001024 | 13 | 51 | 0.0 | 1.6 | 0.00 | 0.84 | 0.81 | 88 | 1005.0 |
| 20260510000611 | 13 | 50 | 0.0 | 1.6 | 0.00 | 0.84 | 0.81 | 87 | 1004.9 |
| 20260510000155 | 13 | 49 | 0.0 | 0.0 | 0.00 | 0.84 | 0.81 | 87 | 1004.9 |
| 20260509235746 | 13 | 75 | 0.0 | 6.4 | 0.00 | 0.84 | 0.81 | 87 | 1005.0 |
| 20260509235350 | 13 | 0 | 0.0 | 6.4 | 0.00 | 0.84 | 0.81 | 87 | 1005.0 |
| 20260509234944 | 13 | 53 | 0.0 | 6.4 | 0.00 | 0.84 | 0.81 | 87 | 1004.8 |
| 20260509234540 | 13 | 0 | 0.0 | 6.4 | 0.00 | 0.84 | 0.81 | 87 | 1004.8 |
| 20260509234143 | 13 | 84 | 1.6 | 6.4 | 0.00 | 0.84 | 0.81 | 87 | 1004.7 |
| 20260509233229 | 13 | 245 | 1.6 | 6.4 | 0.15 | 0.84 | 0.81 | 87 | 1004.6 |
| 20260509232822 | 13 | 172 | 1.6 | 8.0 | 0.23 | 0.84 | 0.81 | 87 | 1004.7 |
| 20260509232425 | 13 | 117 | 1.6 | 8.0 | 0.23 | 0.81 | 0.81 | 87 | 1004.8 |
| 20260509232026 | 13 | 158 | 1.6 | 8.0 | 0.43 | 0.81 | 0.79 | 87 | 1005.1 |
| 20260509231623 | 13 | 137 | 1.6 | 16.1 | 0.51 | 0.76 | 0.76 | 87 | 1004.9 |
| 20260509231216 | 13 | 172 | 3.2 | 16.1 | 0.58 | 0.71 | 0.71 | 87 | 1004.9 |
| 20260509230804 | 13 | 225 | 4.8 | 19.3 | 0.61 | 0.69 | 0.69 | 87 | 1005.5 |
| 20260509230351 | 13 | 218 | 4.8 | 19.3 | 0.81 | 0.64 | 0.61 | 87 | 1005.7 |
| 20260509225944 | 13 | 282 | 6.4 | 19.3 | 0.97 | 0.56 | 0.53 | 86 | 1005.8 |
| 20260509225018 | 13 | 182 | 6.4 | 19.3 | 0.69 | 0.28 | 0.25 | 84 | 1005.8 |
| 20260509224052 | 14 | 271 | 3.2 | 14.5 | 0.66 | 0.13 | 0.10 | 77 | 1004.9 |
| 20260509223650 | 15 | 309 | 4.8 | 14.5 | 0.00 | 0.08 | 0.08 | 72 | 1004.6 |
| 20260509223256 | 16 | 249 | 3.2 | 14.5 | 0.00 | 0.08 | 0.05 | 68 | 1004.9 |
| 20260509222322 | 21 | 0 | 1.6 | 8.0 | 0.00 | 0.08 | 0.05 | 53 | 1002.9 |
| 20260509221908 | 21 | 0 | 1.6 | 8.0 | 0.00 | 0.08 | 0.05 | 51 | 1002.2 |
| 20260509221001 | 21 | 0 | 1.6 | 14.5 | 0.00 | 0.08 | 0.05 | 51 | 1001.7 |
| 20260509220558 | 21 | 0 | 3.2 | 14.5 | 0.00 | 0.08 | 0.05 | 50 | 1001.5 |
| 20260509215109 | 21 | 0 | 4.8 | 19.3 | 0.00 | 0.08 | 0.05 | 48 | 1001.1 |
| 20260509214704 | 21 | 0 | 4.8 | 19.3 | 0.00 | 0.08 | 0.05 | 50 | 1001.2 |
| 20260509214248 | 21 | 0 | 3.2 | 14.5 | 0.00 | 0.08 | 0.05 | 49 | 1001.1 |
| 20260509213838 | 21 | 0 | 3.2 | 16.1 | 0.00 | 0.08 | 0.05 | 49 | 1001.2 |
| 20260509212909 | 21 | 0 | 3.2 | 24.1 | 0.00 | 0.08 | 0.05 | 50 | 1001.2 |
| 20260509212504 | 21 | 0 | 3.2 | 24.1 | 0.00 | 0.08 | 0.05 | 51 | 1001.3 |
| 20260509212054 | 21 | 0 | 4.8 | 24.1 | 0.00 | 0.08 | 0.05 | 52 | 1001.4 |
| 20260509211639 | 21 | 0 | 6.4 | 24.1 | 0.00 | 0.08 | 0.05 | 50 | 1001.4 |
| 20260509211241 | 21 | 0 | 4.8 | 24.1 | 0.00 | 0.08 | 0.05 | 50 | 1001.5 |
| 20260509210825 | 21 | 0 | 3.2 | 19.3 | 0.00 | 0.08 | 0.05 | 52 | 1001.7 |
| 20260509210411 | 21 | 244 | 4.8 | 20.9 | 0.00 | 0.08 | 0.05 | 51 | 1001.7 |
| 20260509210007 | 21 | 40 | 4.8 | 20.9 | 0.00 | 0.08 | 0.05 | 51 | 1001.8 |
| 20260509205601 | 21 | 242 | 4.8 | 20.9 | 0.00 | 0.08 | 0.05 | 49 | 1001.8 |
| 20260509204633 | 22 | 215 | 3.2 | 16.1 | 0.00 | 0.08 | 0.05 | 52 | 1002.1 |
| 20260509204238 | 21 | 150 | 3.2 | 16.1 | 0.00 | 0.08 | 0.05 | 55 | 1002.1 |
| 20260509203839 | 22 | 261 | 4.8 | 16.1 | 0.00 | 0.08 | 0.05 | 50 | 1002.1 |
| 20260509203433 | 22 | 249 | 4.8 | 24.1 | 0.00 | 0.08 | 0.05 | 48 | 1002.2 |
| 20260509202517 | 22 | 187 | 6.4 | 24.1 | 0.00 | 0.08 | 0.05 | 48 | 1002.2 |
| 20260509202117 | 22 | 146 | 6.4 | 24.1 | 0.00 | 0.08 | 0.05 | 49 | 1002.4 |
| 20260509201715 | 21 | 196 | 4.8 | 24.1 | 0.00 | 0.08 | 0.05 | 48 | 1002.6 |
| 20260509201308 | 22 | 144 | 4.8 | 22.5 | 0.00 | 0.08 | 0.05 | 50 | 1002.4 |
| 20260509200913 | 22 | 126 | 4.8 | 17.7 | 0.00 | 0.08 | 0.05 | 49 | 1002.5 |
| 20260509195934 | 21 | 0 | 4.8 | 14.5 | 0.00 | 0.08 | 0.05 | 51 | 1002.6 |
| 20260509195540 | 21 | 0 | 4.8 | 14.5 | 0.00 | 0.08 | 0.05 | 51 | 1002.8 |
| 20260509195131 | 21 | 87 | 4.8 | 14.5 | 0.00 | 0.08 | 0.05 | 51 | 1002.8 |
| 20260509194722 | 21 | 51 | 4.8 | 14.5 | 0.00 | 0.08 | 0.05 | 52 | 1002.9 |
| 20260509194328 | 21 | 77 | 3.2 | 14.5 | 0.00 | 0.08 | 0.05 | 54 | 1003.0 |
| 20260509193919 | 21 | 112 | 4.8 | 17.7 | 0.00 | 0.08 | 0.05 | 52 | 1002.8 |
| 20260509193508 | 21 | 141 | 4.8 | 17.7 | 0.00 | 0.08 | 0.05 | 52 | 1003.0 |
| 20260509193112 | 21 | 44 | 4.8 | 19.3 | 0.00 | 0.08 | 0.05 | 53 | 1002.8 |
| 20260509192710 | 21 | 160 | 4.8 | 19.3 | 0.00 | 0.08 | 0.05 | 50 | 1003.1 |
| 20260509192317 | 21 | 92 | 4.8 | 19.3 | 0.00 | 0.08 | 0.05 | 49 | 1003.1 |
| 20260509191406 | 22 | 119 | 4.8 | 19.3 | 0.00 | 0.08 | 0.05 | 50 | 1003.2 |
| 20260509190952 | 21 | 110 | 4.8 | 14.5 | 0.00 | 0.08 | 0.05 | 53 | 1003.2 |
| 20260509190539 | 21 | 136 | 6.4 | 14.5 | 0.00 | 0.08 | 0.05 | 53 | 1003.3 |
| 20260509190126 | 21 | 103 | 6.4 | 14.5 | 0.00 | 0.08 | 0.05 | 50 | 1003.4 |
| 20260509185718 | 21 | 187 | 4.8 | 19.3 | 0.00 | 0.08 | 0.05 | 52 | 1003.4 |
| 20260509185316 | 21 | 129 | 6.4 | 19.3 | 0.00 | 0.08 | 0.05 | 52 | 1003.3 |
| 20260509184914 | 21 | 125 | 6.4 | 19.3 | 0.00 | 0.08 | 0.05 | 52 | 1003.3 |
| 20260509183947 | 21 | 227 | 4.8 | 14.5 | 0.00 | 0.08 | 0.05 | 51 | 1003.5 |
| 20260509183008 | 21 | 188 | 4.8 | 14.5 | 0.00 | 0.08 | 0.05 | 52 | 1003.6 |
| 20260509182601 | 21 | 196 | 3.2 | 14.5 | 0.00 | 0.08 | 0.05 | 51 | 1003.7 |
| 20260509182153 | 21 | 138 | 3.2 | 9.7 | 0.00 | 0.08 | 0.05 | 56 | 1003.7 |
| 20260509181758 | 20 | 225 | 1.6 | 9.7 | 0.00 | 0.08 | 0.05 | 56 | 1003.7 |
| 20260509181359 | 20 | 117 | 1.6 | 9.7 | 0.00 | 0.08 | 0.05 | 56 | 1003.8 |
| 20260509181005 | 19 | 225 | 1.6 | 9.7 | 0.00 | 0.08 | 0.05 | 63 | 1003.9 |
| 20260509180037 | 18 | 178 | 1.6 | 9.7 | 0.00 | 0.08 | 0.05 | 69 | 1004.0 |
| 20260509175644 | 18 | 0 | 1.6 | 9.7 | 0.00 | 0.08 | 0.05 | 68 | 1004.0 |
| 20260509174208 | 18 | 0 | 3.2 | 9.7 | 0.00 | 0.08 | 0.05 | 69 | 1004.1 |
| 20260509173812 | 18 | 0 | 3.2 | 9.7 | 0.00 | 0.08 | 0.05 | 68 | 1004.1 |
| 20260509173359 | 18 | 0 | 1.6 | 9.7 | 0.00 | 0.08 | 0.05 | 70 | 1004.1 |
| 20260509172957 | 18 | 0 | 1.6 | 9.7 | 0.00 | 0.08 | 0.05 | 71 | 1004.3 |
| 20260509172543 | 18 | 0 | 3.2 | 9.7 | 0.00 | 0.08 | 0.05 | 72 | 1004.3 |
| 20260509172130 | 17 | 0 | 3.2 | 9.7 | 0.00 | 0.08 | 0.05 | 74 | 1004.3 |
| 20260509171727 | 17 | 0 | 3.2 | 9.7 | 0.00 | 0.08 | 0.05 | 74 | 1004.5 |
| 20260509171327 | 17 | 0 | 3.2 | 12.9 | 0.00 | 0.08 | 0.05 | 71 | 1004.6 |
| 20260509170919 | 18 | 198 | 3.2 | 12.9 | 0.00 | 0.08 | 0.05 | 72 | 1004.6 |
| 20260509170001 | 18 | 103 | 1.6 | 12.9 | 0.00 | 0.08 | 0.05 | 68 | 1004.6 |
| 20260509165550 | 18 | 94 | 1.6 | 4.8 | 0.00 | 0.08 | 0.05 | 70 | 1004.6 |
| 20260509165136 | 18 | 101 | 1.6 | 4.8 | 0.00 | 0.08 | 0.05 | 72 | 1004.5 |
| 20260509164737 | 17 | 0 | 1.6 | 8.0 | 0.00 | 0.08 | 0.05 | 71 | 1004.4 |
| 20260509164321 | 17 | 0 | 1.6 | 8.0 | 0.00 | 0.08 | 0.05 | 73 | 1004.6 |
| 20260509163917 | 17 | 0 | 3.2 | 8.0 | 0.00 | 0.08 | 0.05 | 71 | 1004.8 |
| 20260509163515 | 17 | 0 | 3.2 | 11.3 | 0.00 | 0.08 | 0.05 | 74 | 1004.9 |
| 20260509163106 | 17 | 0 | 3.2 | 11.3 | 0.00 | 0.08 | 0.05 | 72 | 1005.2 |
| 20260509162659 | 17 | 0 | 3.2 | 11.3 | 0.00 | 0.08 | 0.05 | 73 | 1005.2 |
| 20260509162307 | 17 | 0 | 3.2 | 11.3 | 0.00 | 0.08 | 0.05 | 74 | 1005.2 |
| 20260509161902 | 17 | 0 | 4.8 | 11.3 | 0.00 | 0.08 | 0.05 | 72 | 1005.3 |
| 20260509161509 | 17 | 0 | 4.8 | 11.3 | 0.00 | 0.08 | 0.05 | 73 | 1005.4 |
| 20260509161116 | 17 | 0 | 3.2 | 11.3 | 0.00 | 0.08 | 0.05 | 74 | 1005.4 |
| 20260509160712 | 16 | 183 | 3.2 | 8.0 | 0.00 | 0.08 | 0.05 | 77 | 1005.4 |
| 20260509160307 | 16 | 234 | 3.2 | 8.0 | 0.00 | 0.08 | 0.05 | 75 | 1005.5 |
| 20260509155914 | 16 | 199 | 3.2 | 8.0 | 0.00 | 0.08 | 0.05 | 75 | 1005.6 |
| 20260509155518 | 16 | 176 | 3.2 | 8.0 | 0.00 | 0.08 | 0.05 | 78 | 1005.6 |
| 20260509155114 | 15 | 232 | 3.2 | 8.0 | 0.00 | 0.08 | 0.05 | 76 | 1005.6 |
| 20260509154707 | 15 | 78 | 1.6 | 8.0 | 0.00 | 0.05 | 0.03 | 77 | 1005.6 |
| 20260509153759 | 16 | 0 | 3.2 | 9.7 | 0.00 | 0.05 | 0.03 | 74 | 1005.6 |
| 20260509153353 | 17 | 0 | 1.6 | 9.7 | 0.00 | 0.05 | 0.03 | 73 | 1005.6 |
| 20260509152952 | 17 | 0 | 1.6 | 9.7 | 0.00 | 0.05 | 0.03 | 69 | 1005.6 |
| 20260509152038 | 17 | 0 | 3.2 | 9.7 | 0.00 | 0.05 | 0.03 | 74 | 1005.5 |
| 20260509151626 | 17 | 0 | 3.2 | 9.7 | 0.00 | 0.05 | 0.03 | 73 | 1005.5 |
| 20260509151224 | 17 | 0 | 1.6 | 9.7 | 0.00 | 0.05 | 0.03 | 72 | 1005.5 |
| 20260509150811 | 17 | 0 | 3.2 | 9.7 | 0.00 | 0.05 | 0.03 | 75 | 1005.5 |
| 20260509150416 | 17 | 0 | 3.2 | 17.7 | 0.00 | 0.05 | 0.03 | 74 | 1005.6 |
| 20260509150020 | 17 | 0 | 3.2 | 17.7 | 0.00 | 0.05 | 0.03 | 74 | 1005.5 |
| 20260509145606 | 17 | 0 | 3.2 | 17.7 | 0.00 | 0.05 | 0.03 | 74 | 1005.5 |
| 20260509145208 | 17 | 88 | 4.8 | 17.7 | 0.00 | 0.05 | 0.03 | 75 | 1005.5 |
| 20260509144754 | 17 | 181 | 3.2 | 17.7 | 0.00 | 0.05 | 0.03 | 75 | 1005.5 |
| 20260509144340 | 17 | 0 | 1.6 | 12.9 | 0.00 | 0.05 | 0.03 | 76 | 1005.5 |
| 20260509143934 | 16 | 0 | 1.6 | 12.9 | 0.00 | 0.05 | 0.03 | 77 | 1005.5 |
| 20260509143530 | 16 | 0 | 1.6 | 12.9 | 0.00 | 0.05 | 0.03 | 77 | 1005.6 |
| 20260509143122 | 16 | 0 | 3.2 | 12.9 | 0.00 | 0.05 | 0.03 | 78 | 1005.6 |
| 20260509142727 | 16 | 0 | 3.2 | 12.9 | 0.00 | 0.05 | 0.03 | 79 | 1005.4 |
| 20260509142319 | 16 | 0 | 3.2 | 9.7 | 0.00 | 0.05 | 0.03 | 77 | 1005.4 |
| 20260509141920 | 16 | 0 | 3.2 | 9.7 | 0.00 | 0.05 | 0.03 | 78 | 1005.5 |
| 20260509141503 | 16 | 0 | 1.6 | 9.7 | 0.00 | 0.05 | 0.03 | 79 | 1005.6 |
| 20260509141109 | 15 | 0 | 1.6 | 9.7 | 0.00 | 0.05 | 0.03 | 78 | 1005.6 |
| 20260509140711 | 15 | 0 | 1.6 | 6.4 | 0.00 | 0.05 | 0.03 | 80 | 1005.7 |
| 20260509135739 | 15 | 129 | 1.6 | 6.4 | 0.00 | 0.05 | 0.03 | 79 | 1005.7 |
| 20260509135326 | 15 | 113 | 1.6 | 4.8 | 0.00 | 0.05 | 0.03 | 80 | 1005.8 |
| 20260509134920 | 15 | 164 | 1.6 | 8.0 | 0.00 | 0.05 | 0.03 | 82 | 1005.7 |
| 20260509134508 | 15 | 106 | 1.6 | 8.0 | 0.00 | 0.05 | 0.03 | 82 | 1005.8 |
| 20260509133546 | 14 | 137 | 3.2 | 8.0 | 0.00 | 0.05 | 0.03 | 82 | 1005.9 |
| 20260509133144 | 14 | 92 | 1.6 | 8.0 | 0.00 | 0.05 | 0.03 | 82 | 1006.0 |
| 20260509132735 | 14 | 119 | 1.6 | 6.4 | 0.00 | 0.05 | 0.03 | 81 | 1006.1 |
| 20260509131258 | 14 | 226 | 1.6 | 6.4 | 0.00 | 0.05 | 0.03 | 83 | 1006.0 |
| 20260509130319 | 14 | 121 | 1.6 | 6.4 | 0.00 | 0.05 | 0.03 | 84 | 1006.0 |
| 20260509125906 | 14 | 205 | 1.6 | 6.4 | 0.00 | 0.05 | 0.03 | 83 | 1005.9 |
| 20260509124940 | 13 | 99 | 0.0 | 6.4 | 0.00 | 0.05 | 0.03 | 84 | 1006.0 |
| 20260509124527 | 13 | 101 | 0.0 | 4.8 | 0.00 | 0.05 | 0.03 | 84 | 1006.0 |
| 20260509123557 | 13 | 107 | 0.0 | 4.8 | 0.00 | 0.05 | 0.03 | 84 | 1006.1 |
| 20260509123150 | 13 | 190 | 0.0 | 4.8 | 0.00 | 0.05 | 0.03 | 85 | 1006.2 |
| 20260509122741 | 13 | 119 | 0.0 | 4.8 | 0.00 | 0.05 | 0.03 | 84 | 1006.3 |
| 20260509122329 | 13 | 98 | 0.0 | 4.8 | 0.00 | 0.05 | 0.03 | 85 | 1006.3 |
| 20260509121923 | 13 | 73 | 0.0 | 4.8 | 0.00 | 0.05 | 0.03 | 85 | 1006.3 |
| 20260509121516 | 13 | 205 | 0.0 | 4.8 | 0.00 | 0.05 | 0.03 | 85 | 1006.4 |
| 20260509121118 | 13 | 128 | 0.0 | 4.8 | 0.00 | 0.05 | 0.03 | 85 | 1006.4 |
| 20260509120708 | 13 | 115 | 0.0 | 4.8 | 0.00 | 0.05 | 0.03 | 85 | 1006.4 |
| 20260509120256 | 12 | 121 | 0.0 | 4.8 | 0.00 | 0.05 | 0.03 | 85 | 1006.4 |
| 20260509115344 | 12 | 190 | 0.0 | 4.8 | 0.00 | 0.05 | 0.03 | 86 | 1006.6 |
| 20260509114930 | 12 | 222 | 1.6 | 3.2 | 0.00 | 0.05 | 0.03 | 85 | 1006.5 |
| 20260509114525 | 12 | 119 | 1.6 | 4.8 | 0.00 | 0.05 | 0.03 | 86 | 1006.5 |
| 20260509113615 | 12 | 124 | 1.6 | 4.8 | 0.00 | 0.05 | 0.03 | 86 | 1006.3 |
| 20260509113221 | 12 | 123 | 1.6 | 4.8 | 0.00 | 0.05 | 0.03 | 86 | 1006.4 |
| 20260509111748 | 12 | 132 | 1.6 | 6.4 | 0.00 | 0.05 | 0.03 | 86 | 1006.4 |
| 20260509111337 | 12 | 126 | 1.6 | 6.4 | 0.00 | 0.05 | 0.03 | 87 | 1006.4 |
| 20260509110938 | 12 | 137 | 0.0 | 6.4 | 0.00 | 0.05 | 0.03 | 87 | 1006.4 |
| 20260509110537 | 12 | 290 | 0.0 | 4.8 | 0.00 | 0.05 | 0.03 | 87 | 1006.4 |
| 20260509110128 | 12 | 129 | 0.0 | 4.8 | 0.00 | 0.05 | 0.03 | 87 | 1006.3 |
| 20260509105731 | 12 | 120 | 0.0 | 3.2 | 0.00 | 0.05 | 0.03 | 87 | 1006.3 |
| 20260509105316 | 12 | 126 | 1.6 | 3.2 | 0.00 | 0.05 | 0.03 | 87 | 1006.4 |
| 20260509104902 | 12 | 114 | 1.6 | 3.2 | 0.00 | 0.05 | 0.03 | 87 | 1006.4 |
| 20260509104503 | 12 | 129 | 0.0 | 3.2 | 0.00 | 0.05 | 0.03 | 87 | 1006.4 |
| 20260509104051 | 12 | 119 | 0.0 | 3.2 | 0.00 | 0.05 | 0.03 | 87 | 1006.3 |
| 20260509103652 | 12 | 123 | 0.0 | 3.2 | 0.00 | 0.05 | 0.03 | 87 | 1006.4 |
| 20260509103241 | 12 | 123 | 0.0 | 4.8 | 0.00 | 0.05 | 0.03 | 87 | 1006.5 |
| 20260509102832 | 12 | 136 | 0.0 | 4.8 | 0.00 | 0.05 | 0.03 | 87 | 1006.5 |
| 20260509102418 | 12 | 111 | 0.0 | 4.8 | 0.00 | 0.05 | 0.03 | 87 | 1006.4 |
| 20260509102005 | 12 | 130 | 0.0 | 4.8 | 0.00 | 0.05 | 0.03 | 87 | 1006.3 |
| 20260509100453 | 12 | 136 | 0.0 | 3.2 | 0.00 | 0.05 | 0.03 | 87 | 1006.4 |
| 20260509100049 | 12 | 135 | 0.0 | 3.2 | 0.00 | 0.05 | 0.03 | 87 | 1006.4 |
| 20260509095636 | 12 | 165 | 0.0 | 3.2 | 0.00 | 0.05 | 0.03 | 87 | 1006.4 |
| 20260509095225 | 12 | 131 | 0.0 | 4.8 | 0.00 | 0.05 | 0.03 | 86 | 1006.4 |
| 20260509094829 | 12 | 126 | 0.0 | 4.8 | 0.00 | 0.05 | 0.03 | 86 | 1006.5 |
| 20260509094429 | 12 | 119 | 0.0 | 6.4 | 0.00 | 0.05 | 0.03 | 86 | 1006.5 |
| 20260509094029 | 12 | 117 | 1.6 | 6.4 | 0.00 | 0.05 | 0.03 | 86 | 1006.4 |
| 20260509093623 | 12 | 117 | 1.6 | 6.4 | 0.00 | 0.05 | 0.03 | 86 | 1006.5 |
| 20260509093222 | 12 | 121 | 1.6 | 6.4 | 0.00 | 0.05 | 0.03 | 86 | 1006.6 |
| 20260509092818 | 12 | 125 | 1.6 | 6.4 | 0.00 | 0.05 | 0.03 | 86 | 1006.5 |
| 20260509091337 | 12 | 121 | 0.0 | 4.8 | 0.00 | 0.05 | 0.03 | 87 | 1006.7 |
| 20260509090944 | 12 | 126 | 1.6 | 4.8 | 0.00 | 0.05 | 0.03 | 87 | 1006.7 |
| 20260509090550 | 12 | 129 | 0.0 | 4.8 | 0.00 | 0.05 | 0.03 | 87 | 1006.8 |
| 20260509085621 | 12 | 110 | 0.0 | 4.8 | 0.00 | 0.05 | 0.03 | 87 | 1006.9 |
| 20260509085216 | 12 | 114 | 0.0 | 4.8 | 0.00 | 0.05 | 0.03 | 86 | 1006.9 |
| 20260509084806 | 12 | 109 | 0.0 | 4.8 | 0.00 | 0.05 | 0.03 | 87 | 1006.9 |
| 20260509084409 | 12 | 115 | 0.0 | 4.8 | 0.00 | 0.05 | 0.03 | 87 | 1006.9 |
| 20260509084005 | 12 | 107 | 0.0 | 3.2 | 0.00 | 0.05 | 0.03 | 86 | 1006.9 |
| 20260509083037 | 12 | 107 | 0.0 | 3.2 | 0.00 | 0.05 | 0.03 | 87 | 1006.8 |
| 20260509082624 | 12 | 114 | 0.0 | 3.2 | 0.00 | 0.05 | 0.03 | 87 | 1006.8 |
| 20260509082230 | 12 | 109 | 0.0 | 1.6 | 0.00 | 0.05 | 0.03 | 86 | 1006.8 |
| 20260509081819 | 12 | 107 | 0.0 | 4.8 | 0.00 | 0.05 | 0.03 | 86 | 1006.9 |
| 20260509081420 | 12 | 107 | 0.0 | 4.8 | 0.00 | 0.05 | 0.03 | 86 | 1007.0 |
| 20260509081012 | 12 | 123 | 0.0 | 4.8 | 0.00 | 0.05 | 0.03 | 86 | 1007.0 |
| 20260509080614 | 12 | 123 | 0.0 | 4.8 | 0.00 | 0.05 | 0.03 | 86 | 1007.0 |
| 20260509080157 | 12 | 123 | 0.0 | 4.8 | 0.00 | 0.05 | 0.03 | 86 | 1007.0 |
| 20260509075753 | 12 | 129 | 0.0 | 3.2 | 0.00 | 0.05 | 0.03 | 86 | 1006.9 |
| 20260509075351 | 12 | 128 | 0.0 | 3.2 | 0.00 | 0.05 | 0.03 | 87 | 1006.9 |
| 20260509074430 | 12 | 117 | 0.0 | 3.2 | 0.00 | 0.05 | 0.03 | 87 | 1006.8 |
| 20260509074033 | 12 | 178 | 0.0 | 3.2 | 0.00 | 0.05 | 0.03 | 86 | 1006.9 |
| 20260509073634 | 12 | 187 | 0.0 | 3.2 | 0.00 | 0.05 | 0.03 | 86 | 1006.9 |
| 20260509073236 | 12 | 216 | 0.0 | 3.2 | 0.00 | 0.05 | 0.03 | 86 | 1006.8 |
| 20260509072829 | 12 | 186 | 0.0 | 3.2 | 0.00 | 0.05 | 0.03 | 86 | 1006.9 |
| 20260509072413 | 12 | 211 | 0.0 | 4.8 | 0.00 | 0.05 | 0.03 | 86 | 1007.0 |
| 20260509072003 | 12 | 186 | 1.6 | 4.8 | 0.00 | 0.05 | 0.03 | 86 | 1007.0 |
| 20260509071032 | 12 | 129 | 1.6 | 4.8 | 0.00 | 0.05 | 0.03 | 86 | 1007.1 |
| 20260509070622 | 12 | 126 | 0.0 | 4.8 | 0.00 | 0.05 | 0.03 | 86 | 1007.2 |
| 20260509070222 | 12 | 118 | 0.0 | 4.8 | 0.00 | 0.05 | 0.03 | 86 | 1007.1 |
| 20260509065820 | 12 | 115 | 0.0 | 4.8 | 0.00 | 0.05 | 0.03 | 86 | 1007.2 |
| 20260509065413 | 12 | 215 | 0.0 | 4.8 | 0.00 | 0.05 | 0.03 | 86 | 1007.2 |
| 20260509064957 | 12 | 138 | 1.6 | 4.8 | 0.00 | 0.05 | 0.03 | 86 | 1007.3 |
| 20260509064022 | 12 | 107 | 0.0 | 4.8 | 0.00 | 0.05 | 0.03 | 86 | 1007.3 |
| 20260509063624 | 12 | 141 | 0.0 | 4.8 | 0.00 | 0.05 | 0.03 | 86 | 1007.3 |
| 20260509063223 | 12 | 127 | 1.6 | 4.8 | 0.00 | 0.05 | 0.03 | 86 | 1007.2 |
| 20260509062816 | 12 | 121 | 1.6 | 4.8 | 0.00 | 0.05 | 0.03 | 86 | 1007.3 |
| 20260509062403 | 12 | 137 | 1.6 | 4.8 | 0.00 | 0.05 | 0.03 | 86 | 1007.3 |
| 20260509061954 | 12 | 130 | 0.0 | 4.8 | 0.00 | 0.05 | 0.03 | 86 | 1007.4 |
| 20260509061547 | 12 | 138 | 0.0 | 3.2 | 0.00 | 0.05 | 0.03 | 86 | 1007.4 |
| 20260509061147 | 12 | 122 | 1.6 | 3.2 | 0.00 | 0.05 | 0.03 | 86 | 1007.4 |
| 20260509060731 | 12 | 123 | 1.6 | 6.4 | 0.00 | 0.05 | 0.03 | 86 | 1007.6 |
| 20260509060335 | 12 | 145 | 1.6 | 6.4 | 0.00 | 0.05 | 0.03 | 86 | 1007.6 |
| 20260509055933 | 12 | 119 | 1.6 | 6.4 | 0.00 | 0.05 | 0.03 | 86 | 1007.6 |
| 20260509055518 | 12 | 126 | 1.6 | 6.4 | 0.00 | 0.05 | 0.03 | 86 | 1007.6 |
| 20260509055125 | 12 | 124 | 1.6 | 6.4 | 0.00 | 0.05 | 0.03 | 86 | 1007.7 |
| 20260509054716 | 12 | 127 | 1.6 | 4.8 | 0.00 | 0.05 | 0.03 | 86 | 1007.7 |
| 20260509054321 | 12 | 140 | 1.6 | 4.8 | 0.00 | 0.05 | 0.03 | 86 | 1007.7 |
| 20260509053917 | 12 | 139 | 1.6 | 8.0 | 0.00 | 0.05 | 0.03 | 86 | 1007.7 |
| 20260509053509 | 12 | 137 | 1.6 | 8.0 | 0.00 | 0.05 | 0.03 | 86 | 1007.8 |
| 20260509053109 | 12 | 111 | 1.6 | 8.0 | 0.00 | 0.05 | 0.03 | 86 | 1007.8 |
| 20260509052710 | 12 | 134 | 1.6 | 8.0 | 0.00 | 0.05 | 0.03 | 86 | 1007.9 |
| 20260509052302 | 12 | 132 | 0.0 | 8.0 | 0.00 | 0.05 | 0.03 | 86 | 1007.9 |
| 20260509051326 | 12 | 134 | 0.0 | 4.8 | 0.00 | 0.05 | 0.03 | 86 | 1008.0 |
| 20260509050915 | 12 | 139 | 0.0 | 4.8 | 0.00 | 0.05 | 0.03 | 86 | 1008.0 |
| 20260509050519 | 12 | 125 | 1.6 | 4.8 | 0.00 | 0.05 | 0.03 | 86 | 1008.1 |
| 20260509045547 | 12 | 130 | 1.6 | 4.8 | 0.00 | 0.05 | 0.03 | 86 | 1008.2 |